Time;durP1;ratioP1;P1;durP2;ratioP2;P2;SDS_P1;SDS_P2;PMS_P1;PMS_P2;Temp;Humidity;BMP_temperature;BMP_pressure;BME280_temperature;BME280_humidity;BME280_pressure;Samples;Min_cycle;Max_cycle;Signal;HPM_P1;HPM_P2
2023/04/08 00:03:02;;;;;;;3.47;2.30;;;15.50;67.00;;;;;;10338507;28;20101;-54
2023/04/08 00:08:02;;;;;;;3.65;2.53;;;15.50;67.00;;;;;;10325288;28;20051;-54
2023/04/08 00:13:03;;;;;;;3.15;2.35;;;15.50;67.00;;;;;;10325464;28;20034;-54
2023/04/08 00:18:04;;;;;;;3.17;2.45;;;15.40;66.90;;;;;;10323103;28;20022;-53
2023/04/08 00:23:05;;;;;;;4.20;2.58;;;15.40;66.90;;;;;;10325057;28;20142;-52
2023/04/08 00:28:05;;;;;;;3.55;2.05;;;15.40;66.90;;;;;;10324526;28;20045;-54
2023/04/08 00:33:07;;;;;;;3.53;2.70;;;15.40;66.90;;;;;;10324538;28;20500;-53
2023/04/08 00:38:08;;;;;;;3.53;2.38;;;15.40;66.90;;;;;;10324427;28;20018;-51
2023/04/08 00:43:09;;;;;;;3.58;2.30;;;15.40;66.90;;;;;;10324228;28;20046;-53
2023/04/08 00:48:10;;;;;;;3.78;2.80;;;15.40;67.50;;;;;;10322900;28;20501;-53
2023/04/08 00:53:12;;;;;;;3.42;2.20;;;15.50;72.50;;;;;;10324388;28;20022;-54
2023/04/08 00:58:14;;;;;;;3.40;2.67;;;15.50;72.00;;;;;;10323566;28;20050;-53
2023/04/08 01:03:30;;;;;;;3.22;2.30;;;15.50;71.30;;;;;;10334277;28;20053;-52
2023/04/08 01:08:34;;;;;;;3.92;1.95;;;15.50;71.20;;;;;;10322143;28;20051;-54
2023/04/08 01:13:40;;;;;;;2.60;1.95;;;15.50;70.40;;;;;;10321952;28;20806;-53
2023/04/08 01:18:43;;;;;;;2.78;2.10;;;15.50;70.20;;;;;;10322118;28;20093;-54
2023/04/08 01:23:52;;;;;;;2.58;1.90;;;15.50;70.60;;;;;;10321831;28;20112;-53
2023/04/08 01:28:58;;;;;;;3.72;1.67;;;15.40;70.20;;;;;;10323729;28;20426;-54
2023/04/08 01:34:01;;;;;;;3.75;2.10;;;15.40;69.90;;;;;;10321884;28;20034;-53
2023/04/08 01:39:04;;;;;;;3.20;2.25;;;15.40;69.90;;;;;;10322966;28;20409;-53
2023/04/08 01:44:05;;;;;;;2.60;2.13;;;15.30;69.50;;;;;;10321661;28;20030;-53
2023/04/08 01:49:06;;;;;;;2.58;1.88;;;15.40;69.50;;;;;;10321320;28;20026;-54
2023/04/08 01:54:07;;;;;;;3.15;1.85;;;15.30;69.40;;;;;;10321424;28;20532;-54
2023/04/08 01:59:12;;;;;;;3.00;2.17;;;15.30;69.30;;;;;;10327340;28;20101;-52
2023/04/08 02:04:13;;;;;;;4.07;2.20;;;15.30;69.20;;;;;;10329038;28;20370;-54
2023/04/08 02:09:14;;;;;;;2.75;2.17;;;15.30;69.20;;;;;;10322332;28;20134;-51
2023/04/08 02:14:15;;;;;;;3.08;1.80;;;15.30;69.00;;;;;;10326218;28;20062;-51
2023/04/08 02:19:34;;;;;;;2.30;1.60;;;15.30;69.00;;;;;;10329647;28;20106;-54
2023/04/08 02:24:36;;;;;;;3.22;2.00;;;15.30;68.90;;;;;;10315687;28;20393;-53
2023/04/08 02:29:40;;;;;;;3.35;2.13;;;15.30;68.80;;;;;;10327954;28;20026;-54
2023/04/08 02:34:42;;;;;;;4.40;1.70;;;15.20;68.70;;;;;;10327750;28;20113;-53
2023/04/08 02:39:42;;;;;;;2.72;1.70;;;15.20;68.60;;;;;;10327355;28;20057;-52
2023/04/08 02:44:43;;;;;;;2.05;1.65;;;15.20;68.50;;;;;;10328785;28;20114;-54
2023/04/08 02:49:44;;;;;;;1.83;1.40;;;15.20;68.50;;;;;;10328493;28;20027;-53
2023/04/08 02:54:44;;;;;;;2.75;2.10;;;15.20;68.50;;;;;;10327747;28;20035;-51
2023/04/08 02:59:45;;;;;;;2.53;1.67;;;15.20;68.40;;;;;;10327833;28;20096;-55
2023/04/08 03:04:46;;;;;;;2.35;1.73;;;15.20;68.30;;;;;;10327678;28;20053;-51
2023/04/08 03:09:47;;;;;;;1.73;1.38;;;15.20;68.20;;;;;;10327831;28;20054;-51
2023/04/08 03:14:49;;;;;;;2.30;1.42;;;15.10;68.00;;;;;;10327365;28;20052;-53
2023/04/08 03:19:50;;;;;;;2.20;1.17;;;15.10;68.00;;;;;;10327032;28;20424;-53
2023/04/08 03:24:50;;;;;;;2.10;1.42;;;15.10;67.90;;;;;;10326508;28;20071;-53
2023/04/08 03:29:52;;;;;;;2.65;1.85;;;15.10;67.80;;;;;;10325487;28;20019;-53
2023/04/08 03:34:52;;;;;;;2.05;1.48;;;15.10;67.90;;;;;;10324779;28;20042;-54
2023/04/08 03:39:54;;;;;;;1.70;1.00;;;15.10;67.80;;;;;;10323802;28;20497;-54
2023/04/08 03:44:55;;;;;;;2.50;1.55;;;15.00;67.70;;;;;;10324839;28;20026;-53
2023/04/08 03:49:55;;;;;;;1.17;1.00;;;15.10;67.80;;;;;;10322394;28;20032;-54
2023/04/08 03:54:56;;;;;;;2.13;1.25;;;15.10;67.80;;;;;;10323681;28;20113;-54
2023/04/08 03:59:57;;;;;;;2.28;1.35;;;15.30;67.50;;;;;;10323159;28;20121;-55
2023/04/08 04:04:57;;;;;;;1.52;1.10;;;15.60;66.20;;;;;;10323161;28;20062;-54
2023/04/08 04:09:58;;;;;;;1.95;1.48;;;15.90;65.00;;;;;;10323956;28;20026;-54
2023/04/08 04:14:59;;;;;;;1.77;1.02;;;16.20;64.00;;;;;;10323409;28;20105;-54
2023/04/08 04:20:03;;;;;;;1.45;1.13;;;16.50;63.30;;;;;;10321063;28;20109;-53
2023/04/08 04:25:04;;;;;;;1.33;1.00;;;16.50;63.30;;;;;;10320012;28;20052;-53
2023/04/08 04:30:06;;;;;;;1.45;0.90;;;16.40;63.40;;;;;;10320483;28;20480;-49
2023/04/08 04:35:08;;;;;;;1.70;1.23;;;16.30;63.50;;;;;;10318378;28;20066;-51
2023/04/08 04:40:09;;;;;;;1.55;0.90;;;16.30;63.60;;;;;;10324244;28;20089;-54
2023/04/08 04:45:10;;;;;;;1.50;0.93;;;16.30;63.60;;;;;;10324277;28;20022;-54
2023/04/08 04:50:11;;;;;;;1.88;1.10;;;16.30;63.50;;;;;;10323509;28;20022;-54
2023/04/08 04:55:12;;;;;;;1.15;0.85;;;16.30;63.70;;;;;;10318403;28;20219;-55
2023/04/08 05:00:13;;;;;;;1.67;1.13;;;16.20;63.70;;;;;;10320532;28;20022;-54
2023/04/08 05:05:13;;;;;;;1.48;0.90;;;16.30;63.60;;;;;;10320431;28;20655;-53
2023/04/08 05:10:14;;;;;;;1.88;1.10;;;16.40;63.70;;;;;;10321460;28;20031;-55
2023/04/08 05:15:15;;;;;;;2.15;1.02;;;16.30;65.10;;;;;;10316669;28;20034;-53
2023/04/08 05:20:16;;;;;;;3.78;1.48;;;16.20;64.80;;;;;;10321234;28;20137;-57
2023/04/08 05:25:16;;;;;;;7.25;2.10;;;16.20;65.90;;;;;;10321757;28;20046;-53
2023/04/08 05:30:17;;;;;;;9.25;1.73;;;16.10;66.00;;;;;;10321340;28;20031;-55
2023/04/08 05:35:18;;;;;;;10.02;1.50;;;16.10;66.70;;;;;;10319423;28;20041;-53
2023/04/08 05:40:19;;;;;;;17.67;2.88;;;16.00;66.80;;;;;;10320917;28;20130;-51
2023/04/08 05:45:19;;;;;;;11.98;3.08;;;16.00;67.00;;;;;;10319880;28;20065;-53
2023/04/08 05:50:20;;;;;;;13.50;3.63;;;16.10;66.80;;;;;;10328116;28;20745;-53
2023/04/08 05:55:21;;;;;;;7.32;2.13;;;16.00;66.90;;;;;;10329558;28;20118;-54
2023/04/08 06:00:21;;;;;;;10.98;2.13;;;15.90;66.50;;;;;;10343691;28;20666;-54
2023/04/08 06:05:22;;;;;;;11.82;2.00;;;16.00;66.10;;;;;;10328740;28;20133;-52
2023/04/08 06:10:23;;;;;;;6.45;1.58;;;15.90;65.80;;;;;;10327540;28;20046;-54
2023/04/08 06:15:24;;;;;;;18.23;3.40;;;15.90;65.80;;;;;;10327816;28;20638;-54
2023/04/08 06:20:25;;;;;;;9.15;1.95;;;15.80;65.80;;;;;;10327283;28;20366;-54
2023/04/08 06:25:26;;;;;;;6.50;1.52;;;15.80;66.00;;;;;;10325555;28;20018;-53
2023/04/08 06:30:26;;;;;;;8.85;2.58;;;15.90;65.40;;;;;;10327411;28;20142;-54
2023/04/08 06:35:27;;;;;;;7.65;2.05;;;15.90;65.00;;;;;;10327316;28;20063;-54
2023/04/08 06:40:28;;;;;;;10.52;2.00;;;15.90;64.90;;;;;;10323919;28;20007;-53
2023/04/08 06:45:29;;;;;;;4.75;1.50;;;16.00;64.70;;;;;;10325207;28;20026;-52
2023/04/08 06:50:29;;;;;;;6.88;1.50;;;16.00;64.70;;;;;;10303017;28;20100;-53
2023/04/08 06:55:30;;;;;;;5.50;1.52;;;15.90;64.60;;;;;;10318802;28;20121;-53
2023/04/08 07:00:31;;;;;;;8.35;1.92;;;16.00;64.40;;;;;;10330835;28;20115;-53
2023/04/08 07:05:31;;;;;;;7.07;1.95;;;16.00;64.30;;;;;;10327374;28;20129;-52
2023/04/08 07:10:34;;;;;;;4.30;1.52;;;16.00;65.00;;;;;;10326877;28;20117;-53
2023/04/08 07:15:35;;;;;;;6.70;1.60;;;15.90;64.50;;;;;;10327048;28;20073;-48
2023/04/08 07:20:37;;;;;;;7.90;2.47;;;16.00;64.60;;;;;;10326203;28;20106;-50
2023/04/08 07:25:37;;;;;;;6.65;2.53;;;15.80;64.10;;;;;;10327520;28;20023;-50
2023/04/08 07:30:38;;;;;;;27.50;4.60;;;15.90;63.30;;;;;;10326667;28;20044;-53
2023/04/08 07:35:39;;;;;;;18.83;3.35;;;15.80;64.00;;;;;;10326471;28;20389;-53
2023/04/08 07:40:39;;;;;;;15.95;3.47;;;16.00;63.50;;;;;;10326259;28;20054;-55
2023/04/08 07:45:40;;;;;;;28.13;5.35;;;16.10;63.10;;;;;;10309139;28;20481;-56
2023/04/08 07:50:41;;;;;;;19.55;5.00;;;16.20;63.30;;;;;;10326598;28;20803;-54
2023/04/08 07:55:42;;;;;;;17.27;4.60;;;16.20;63.50;;;;;;10325111;28;20121;-54
2023/04/08 08:00:42;;;;;;;26.48;4.68;;;16.10;64.00;;;;;;10327222;28;20116;-54
2023/04/08 08:05:43;;;;;;;15.90;4.30;;;16.20;64.60;;;;;;10325805;28;20669;-54
2023/04/08 08:10:44;;;;;;;26.15;4.57;;;16.00;65.80;;;;;;10325116;28;20022;-56
2023/04/08 08:15:44;;;;;;;15.50;5.55;;;16.00;66.30;;;;;;10325111;28;20034;-55
2023/04/08 08:20:45;;;;;;;19.40;5.47;;;16.00;67.10;;;;;;10324918;28;20022;-55
2023/04/08 08:25:46;;;;;;;24.38;5.82;;;16.00;66.60;;;;;;10323166;28;20102;-54
2023/04/08 08:30:48;;;;;;;31.92;6.07;;;15.90;67.20;;;;;;10325486;28;20057;-55
2023/04/08 08:35:49;;;;;;;20.98;4.93;;;15.90;67.40;;;;;;10324285;28;20034;-55
2023/04/08 08:40:57;;;;;;;23.73;5.53;;;15.80;67.60;;;;;;10324795;28;20030;-57
2023/04/08 08:45:58;;;;;;;13.57;4.70;;;15.80;67.70;;;;;;10324635;28;20030;-56
2023/04/08 08:51:00;;;;;;;15.50;4.85;;;15.80;67.70;;;;;;10323530;28;20027;-57
2023/04/08 08:56:00;;;;;;;24.30;5.15;;;15.90;67.80;;;;;;10304593;28;20604;-56
2023/04/08 09:01:01;;;;;;;26.55;5.60;;;15.90;67.80;;;;;;10320878;28;20098;-57
2023/04/08 09:06:02;;;;;;;23.65;7.35;;;15.90;67.80;;;;;;10320849;28;20111;-56
2023/04/08 09:11:17;;;;;;;23.67;5.60;;;15.80;68.30;;;;;;10320851;28;20507;-58
2023/04/08 09:16:18;;;;;;;20.88;5.28;;;15.80;68.00;;;;;;10323207;28;20038;-59
2023/04/08 09:21:23;;;;;;;20.17;6.13;;;15.90;67.80;;;;;;10324100;28;20101;-55
2023/04/08 09:26:24;;;;;;;14.23;5.22;;;16.30;67.40;;;;;;10328155;28;20034;-57
2023/04/08 09:31:28;;;;;;;16.38;4.22;;;16.60;67.60;;;;;;10326989;28;20031;-56
2023/04/08 09:36:28;;;;;;;18.95;4.63;;;16.70;68.10;;;;;;10328579;28;20421;-52
2023/04/08 09:41:34;;;;;;;9.77;4.00;;;16.70;68.30;;;;;;10329212;28;20018;-56
2023/04/08 09:46:40;;;;;;;21.77;5.60;;;16.70;68.30;;;;;;10330151;28;20105;-56
2023/04/08 09:52:11;;;;;;;24.08;4.50;;;16.40;68.80;;;;;;10329485;28;20033;-56
2023/04/08 09:57:38;;;;;;;23.02;5.45;;;16.20;68.00;;;;;;10329889;28;20066;-56
2023/04/08 10:03:05;;;;;;;14.82;5.20;;;16.10;68.10;;;;;;10342870;28;20106;-55
2023/04/08 10:08:06;;;;;;;15.40;5.28;;;16.00;67.80;;;;;;10329793;28;20477;-55
2023/04/08 10:13:08;;;;;;;14.95;6.07;;;16.00;67.50;;;;;;10328366;28;20909;-57
2023/04/08 10:18:08;;;;;;;14.38;5.35;;;16.00;67.50;;;;;;10328366;28;20474;-57
2023/04/08 10:23:12;;;;;;;12.63;4.40;;;16.00;67.40;;;;;;10329545;28;20026;-57
2023/04/08 10:28:19;;;;;;;8.90;4.03;;;16.00;67.40;;;;;;10329980;28;20045;-56
2023/04/08 10:33:28;;;;;;;20.70;4.90;;;16.00;67.30;;;;;;10328686;28;20045;-57
2023/04/08 10:38:29;;;;;;;10.20;4.82;;;16.00;67.20;;;;;;10329509;28;20015;-55
2023/04/08 10:43:33;;;;;;;7.80;4.03;;;16.10;67.20;;;;;;10328804;28;20025;-57
2023/04/08 10:48:34;;;;;;;17.05;6.32;;;16.20;67.90;;;;;;10326764;28;20061;-58
2023/04/08 10:53:38;;;;;;;19.85;6.28;;;16.70;66.90;;;;;;10326552;28;20113;-56
2023/04/08 10:58:56;;;;;;;12.52;4.68;;;17.10;66.70;;;;;;10327515;28;20058;-57
2023/04/08 11:03:58;;;;;;;14.82;6.50;;;17.10;66.80;;;;;;10335942;28;20474;-59
2023/04/08 11:09:03;;;;;;;15.18;4.65;;;17.20;66.80;;;;;;10326021;28;20429;-56
2023/04/08 11:14:04;;;;;;;11.70;4.97;;;17.10;67.20;;;;;;10326120;28;20548;-57
2023/04/08 11:19:06;;;;;;;19.98;6.72;;;17.10;67.80;;;;;;10325608;28;20649;-57
2023/04/08 11:24:12;;;;;;;13.27;5.60;;;17.10;67.30;;;;;;10324599;28;20022;-58
2023/04/08 11:29:13;;;;;;;18.20;5.60;;;17.00;67.50;;;;;;10325027;28;20028;-53
2023/04/08 11:34:22;;;;;;;32.25;6.57;;;17.10;67.70;;;;;;10325397;28;20031;-56
2023/04/08 11:39:23;;;;;;;33.08;7.18;;;16.80;68.00;;;;;;10324997;28;20023;-55
2023/04/08 11:44:33;;;;;;;22.23;6.00;;;16.60;68.00;;;;;;10324426;28;20117;-55
2023/04/08 11:49:45;;;;;;;;;;;16.50;67.70;;;;;;10322683;28;20022;-54
2023/04/08 11:54:47;;;;;;;18.98;5.72;;;16.40;67.70;;;;;;10320451;28;19920;-56
2023/04/08 11:59:48;;;;;;;19.00;6.47;;;16.40;67.80;;;;;;10331769;28;20559;-54
2023/04/08 12:04:49;;;;;;;17.15;5.22;;;16.30;67.80;;;;;;10321509;28;20133;-55
2023/04/08 12:09:50;;;;;;;13.98;5.45;;;16.30;67.80;;;;;;10320867;28;20484;-56
2023/04/08 12:14:51;;;;;;;16.33;5.03;;;16.30;68.10;;;;;;10323069;28;20032;-56
2023/04/08 12:19:51;;;;;;;10.95;4.22;;;16.20;67.70;;;;;;10323215;28;20505;-55
2023/04/08 12:24:52;;;;;;;11.55;5.38;;;16.20;67.80;;;;;;10322677;28;20069;-55
2023/04/08 12:29:54;;;;;;;14.40;4.88;;;16.10;67.70;;;;;;10322859;28;20385;-53
2023/04/08 12:34:55;;;;;;;13.65;3.97;;;16.10;67.80;;;;;;10322992;28;20470;-55
2023/04/08 12:39:55;;;;;;;20.83;5.82;;;16.40;67.00;;;;;;10322433;28;20018;-56
2023/04/08 12:44:56;;;;;;;19.63;5.00;;;16.70;67.50;;;;;;10324628;28;20714;-57
2023/04/08 12:49:57;;;;;;;14.27;4.30;;;16.50;67.50;;;;;;10322701;28;20022;-56
2023/04/08 12:54:57;;;;;;;15.60;4.72;;;16.40;67.70;;;;;;10323857;28;20101;-56
2023/04/08 12:59:58;;;;;;;15.88;4.47;;;16.30;67.70;;;;;;10335040;28;20596;-56
2023/04/08 13:04:59;;;;;;;24.30;5.13;;;16.30;67.70;;;;;;10325118;28;20022;-55
2023/04/08 13:10:00;;;;;;;33.63;5.78;;;16.30;68.00;;;;;;10324064;28;20473;-56
2023/04/08 13:15:00;;;;;;;29.08;5.38;;;16.30;68.20;;;;;;10323823;28;20078;-55
2023/04/08 13:20:01;;;;;;;28.52;6.80;;;16.30;68.20;;;;;;10322663;28;20029;-56
2023/04/08 13:25:05;;;;;;;37.92;7.40;;;16.30;68.40;;;;;;10323424;28;20066;-54
2023/04/08 13:30:06;;;;;;;42.92;7.70;;;16.30;68.70;;;;;;10322720;28;20030;-55
2023/04/08 13:35:08;;;;;;;49.80;8.73;;;16.30;68.80;;;;;;10322703;28;20651;-55
2023/04/08 13:40:09;;;;;;;49.20;9.35;;;16.20;68.80;;;;;;10323396;28;20634;-54
2023/04/08 13:45:10;;;;;;;46.17;7.97;;;16.20;69.30;;;;;;10323579;28;20381;-56
2023/04/08 13:50:11;;;;;;;37.97;8.60;;;16.20;69.80;;;;;;10322698;28;20033;-55
2023/04/08 13:55:11;;;;;;;52.83;9.07;;;16.20;70.00;;;;;;10321688;28;20042;-56
2023/04/08 14:00:12;;;;;;;44.30;7.97;;;16.10;69.70;;;;;;10322457;28;20381;-55
2023/04/08 14:05:13;;;;;;;37.45;7.70;;;16.20;69.60;;;;;;10322436;28;20050;-52
2023/04/08 14:10:16;;;;;;;39.58;8.00;;;16.20;69.90;;;;;;10327681;28;20034;-55
2023/04/08 14:15:17;;;;;;;40.97;8.50;;;16.20;69.80;;;;;;10329889;28;20050;-54
2023/04/08 14:20:17;;;;;;;48.60;8.43;;;16.20;69.70;;;;;;10327890;28;20022;-54
2023/04/08 14:25:18;;;;;;;46.72;8.60;;;16.20;69.60;;;;;;10328862;28;20041;-55
2023/04/08 14:30:19;;;;;;;53.72;10.32;;;16.20;69.80;;;;;;10327775;28;20756;-55
2023/04/08 14:35:20;;;;;;;42.33;7.65;;;16.30;69.30;;;;;;10328224;28;20037;-55
2023/04/08 14:40:21;;;;;;;24.63;6.95;;;16.40;69.20;;;;;;10328984;28;20023;-55
2023/04/08 14:45:21;;;;;;;33.35;9.38;;;16.30;69.30;;;;;;10328642;28;20019;-55
2023/04/08 14:50:22;;;;;;;34.15;7.32;;;16.30;69.10;;;;;;10327509;28;20141;-57
2023/04/08 14:55:24;;;;;;;40.85;8.07;;;16.30;68.80;;;;;;10327696;28;20030;-57
2023/04/08 15:00:24;;;;;;;32.00;7.32;;;16.30;68.90;;;;;;10332165;28;20338;-55
2023/04/08 15:05:25;;;;;;;29.08;6.82;;;16.30;68.70;;;;;;10327934;28;20050;-55
2023/04/08 15:10:26;;;;;;;31.77;6.72;;;16.30;68.70;;;;;;10327671;28;20070;-57
2023/04/08 15:15:27;;;;;;;30.90;6.22;;;16.30;68.50;;;;;;10325106;28;20054;-56
2023/04/08 15:20:28;;;;;;;25.27;5.72;;;16.40;68.50;;;;;;10325706;28;20101;-54
2023/04/08 15:25:29;;;;;;;25.23;6.28;;;16.40;68.80;;;;;;10325534;28;20109;-56
2023/04/08 15:30:34;;;;;;;26.75;6.88;;;16.40;68.80;;;;;;10326677;28;20113;-56
2023/04/08 15:35:37;;;;;;;41.40;9.52;;;16.40;68.70;;;;;;10327142;28;20042;-55
2023/04/08 15:40:37;;;;;;;37.65;10.27;;;16.40;68.60;;;;;;10325932;28;20653;-54
2023/04/08 15:45:45;;;;;;;31.52;13.77;;;16.60;67.70;;;;;;10327030;28;20529;-55
2023/04/08 15:50:46;;;;;;;32.28;14.60;;;16.90;67.10;;;;;;10325319;28;20030;-57
2023/04/08 15:55:46;;;;;;;31.67;12.05;;;17.00;68.70;;;;;;10341239;28;20125;-58
2023/04/08 16:00:47;;;;;;;41.88;13.82;;;17.20;70.70;;;;;;10339659;28;20054;-57
2023/04/08 16:05:48;;;;;;;31.40;11.32;;;17.20;69.50;;;;;;10325959;28;20074;-56
2023/04/08 16:10:49;;;;;;;39.40;13.25;;;17.20;69.50;;;;;;10325809;28;20121;-56
2023/04/08 16:15:49;;;;;;;32.58;14.15;;;17.10;69.50;;;;;;10325076;28;20043;-57
2023/04/08 16:20:50;;;;;;;34.92;11.57;;;17.00;69.20;;;;;;10322055;28;20411;-57
2023/04/08 16:25:51;;;;;;;38.00;12.68;;;16.90;69.80;;;;;;10315430;28;20121;-57
2023/04/08 16:30:52;;;;;;;27.38;11.13;;;16.90;69.50;;;;;;10320067;28;20153;-58
2023/04/08 16:35:53;;;;;;;29.77;11.10;;;16.70;69.60;;;;;;10322640;28;20137;-56
2023/04/08 16:40:57;;;;;;;33.53;12.15;;;16.60;69.70;;;;;;10324491;28;20070;-57
2023/04/08 16:45:58;;;;;;;25.92;10.25;;;16.50;69.40;;;;;;10324949;28;20520;-58
2023/04/08 16:50:58;;;;;;;27.35;10.23;;;16.40;69.40;;;;;;10324762;28;20105;-58
2023/04/08 16:55:59;;;;;;;21.52;10.63;;;16.40;69.40;;;;;;10324596;28;20188;-58
2023/04/08 17:01:00;;;;;;;15.10;9.88;;;16.40;69.30;;;;;;10329085;28;20070;-58
2023/04/08 17:06:12;;;;;;;25.80;10.30;;;16.30;69.30;;;;;;10321188;28;20672;-58
2023/04/08 17:11:14;;;;;;;25.58;8.77;;;16.30;69.90;;;;;;10323695;28;20184;-57
2023/04/08 17:16:16;;;;;;;25.05;10.73;;;16.20;70.40;;;;;;10323667;28;20825;-58
2023/04/08 17:21:17;;;;;;;23.52;9.05;;;16.20;71.00;;;;;;10323418;28;20042;-58
2023/04/08 17:26:18;;;;;;;15.05;8.27;;;16.20;70.10;;;;;;10323227;28;20030;-56
2023/04/08 17:31:18;;;;;;;23.98;8.55;;;16.40;69.10;;;;;;10321410;28;20382;-56
2023/04/08 17:36:19;;;;;;;18.02;7.53;;;16.30;69.60;;;;;;10322631;28;20034;-57
2023/04/08 17:41:20;;;;;;;19.08;8.90;;;16.30;70.10;;;;;;10322486;28;20053;-58
2023/04/08 17:46:21;;;;;;;20.23;8.32;;;16.20;70.00;;;;;;10330905;28;20022;-57
2023/04/08 17:51:22;;;;;;;17.20;7.53;;;16.20;70.10;;;;;;10330525;28;20097;-58
2023/04/08 17:56:23;;;;;;;17.98;8.55;;;16.10;69.90;;;;;;10330081;28;20597;-58
2023/04/08 18:01:24;;;;;;;17.70;7.90;;;16.10;69.90;;;;;;10343510;28;20413;-59
2023/04/08 18:06:24;;;;;;;16.77;7.65;;;16.20;69.50;;;;;;10330671;28;20097;-59
2023/04/08 18:11:26;;;;;;;13.57;7.53;;;16.10;69.60;;;;;;10329566;28;20478;-58
2023/04/08 18:16:26;;;;;;;15.70;7.47;;;16.20;69.70;;;;;;10330072;28;20034;-63
2023/04/08 18:21:27;;;;;;;11.93;6.40;;;16.10;69.20;;;;;;10329815;28;20095;-66
2023/04/08 18:26:28;;;;;;;12.88;7.50;;;16.00;69.30;;;;;;10329684;28;20018;-60
2023/04/08 18:31:29;;;;;;;22.20;8.55;;;16.10;69.60;;;;;;10329870;28;20026;-61
2023/04/08 18:36:30;;;;;;;12.95;6.68;;;16.20;69.30;;;;;;10327244;28;20041;-61
2023/04/08 18:41:31;;;;;;;17.20;7.05;;;16.20;69.00;;;;;;10329223;28;20062;-63
2023/04/08 18:46:32;;;;;;;18.80;7.65;;;16.20;69.20;;;;;;10328812;28;20029;-62
2023/04/08 18:51:33;;;;;;;13.48;6.95;;;16.10;69.30;;;;;;10328868;28;20041;-60
2023/04/08 18:56:33;;;;;;;14.25;7.05;;;16.10;69.50;;;;;;10327509;28;20481;-61
2023/04/08 19:01:35;;;;;;;16.73;6.93;;;16.10;69.70;;;;;;10327063;28;20114;-60
2023/04/08 19:06:39;;;;;;;16.02;7.32;;;16.10;70.00;;;;;;10326909;28;20406;-60
2023/04/08 19:11:39;;;;;;;13.20;6.68;;;16.10;70.10;;;;;;10327031;28;20027;-60
2023/04/08 19:16:40;;;;;;;14.57;6.60;;;16.10;70.20;;;;;;10326912;28;20506;-59
2023/04/08 19:21:41;;;;;;;13.75;6.93;;;16.10;70.20;;;;;;10321800;28;20027;-60
2023/04/08 19:26:42;;;;;;;13.32;5.93;;;16.10;70.10;;;;;;10320686;28;20088;-60
2023/04/08 19:31:43;;;;;;;10.43;5.50;;;16.10;70.00;;;;;;10323292;28;20109;-60
2023/04/08 19:36:43;;;;;;;11.38;5.50;;;16.00;70.00;;;;;;10323678;28;20066;-61
2023/04/08 19:41:44;;;;;;;10.05;5.60;;;16.00;70.00;;;;;;10327219;28;20030;-61
2023/04/08 19:46:45;;;;;;;9.82;5.40;;;16.00;69.90;;;;;;10322741;28;20014;-61
2023/04/08 19:51:45;;;;;;;8.90;5.55;;;16.00;69.80;;;;;;10324614;28;20113;-60
2023/04/08 19:56:46;;;;;;;13.85;6.00;;;16.00;69.80;;;;;;10324223;28;20030;-61
2023/04/08 20:01:47;;;;;;;18.75;5.70;;;15.90;69.70;;;;;;10335833;28;20022;-60
2023/04/08 20:06:47;;;;;;;7.97;4.65;;;15.90;69.70;;;;;;10323213;28;20084;-60
2023/04/08 20:11:48;;;;;;;12.68;5.07;;;15.90;69.70;;;;;;10323323;28;20106;-60
2023/04/08 20:16:49;;;;;;;10.23;4.88;;;15.90;69.60;;;;;;10324405;28;20113;-58
2023/04/08 20:21:49;;;;;;;12.93;7.13;;;15.90;69.60;;;;;;10324421;28;20101;-60
2023/04/08 20:26:51;;;;;;;9.73;5.50;;;15.90;69.50;;;;;;10324091;28;20389;-60
2023/04/08 20:31:51;;;;;;;11.55;5.13;;;15.90;69.50;;;;;;10323815;28;20022;-60
2023/04/08 20:36:52;;;;;;;12.30;5.68;;;15.90;69.50;;;;;;10324929;28;20114;-60
2023/04/08 20:41:53;;;;;;;12.38;6.40;;;15.80;69.40;;;;;;10324930;28;20105;-60
2023/04/08 20:46:53;;;;;;;7.03;4.22;;;15.80;69.30;;;;;;10324625;28;20582;-61
2023/04/08 20:51:54;;;;;;;7.47;3.85;;;15.80;69.30;;;;;;10324746;28;20065;-60
2023/04/08 20:56:55;;;;;;;6.40;3.50;;;15.80;69.30;;;;;;10324317;28;20129;-61
2023/04/08 21:01:56;;;;;;;6.03;3.55;;;15.80;69.20;;;;;;10336596;28;20056;-60
2023/04/08 21:06:56;;;;;;;5.15;3.30;;;15.80;69.10;;;;;;10322650;28;20058;-61
2023/04/08 21:11:57;;;;;;;6.45;4.10;;;15.80;69.10;;;;;;10323675;28;20102;-60
2023/04/08 21:16:58;;;;;;;7.03;4.18;;;15.80;69.10;;;;;;10327248;28;20605;-61
2023/04/08 21:21:58;;;;;;;5.32;3.75;;;15.80;69.00;;;;;;10335704;28;20018;-59
2023/04/08 21:27:00;;;;;;;5.35;4.07;;;15.80;69.00;;;;;;10337217;28;20109;-60
2023/04/08 21:32:01;;;;;;;7.80;4.95;;;15.80;68.90;;;;;;10337133;28;20041;-60
2023/04/08 21:37:01;;;;;;;8.00;5.25;;;15.80;68.90;;;;;;10337097;28;20053;-59
2023/04/08 21:42:02;;;;;;;7.20;4.15;;;15.80;68.90;;;;;;10337039;28;20101;-61
2023/04/08 21:47:03;;;;;;;5.88;4.15;;;15.70;68.80;;;;;;10336708;28;20022;-60
2023/04/08 21:52:04;;;;;;;8.02;4.55;;;15.70;68.70;;;;;;10336619;28;20044;-60
2023/04/08 21:57:04;;;;;;;7.20;4.25;;;15.70;68.70;;;;;;10336660;28;20084;-60
2023/04/08 22:02:05;;;;;;;8.90;5.07;;;15.80;68.80;;;;;;10347520;28;20019;-60
2023/04/08 22:07:06;;;;;;;7.13;4.60;;;15.70;68.80;;;;;;10336441;28;20129;-61
2023/04/08 22:12:08;;;;;;;8.05;4.90;;;15.70;68.70;;;;;;10336105;28;20606;-60
2023/04/08 22:17:09;;;;;;;9.00;5.70;;;15.70;68.70;;;;;;10336649;28;20433;-60
2023/04/08 22:22:10;;;;;;;6.43;4.30;;;15.70;68.80;;;;;;10336061;28;20056;-60
2023/04/08 22:27:10;;;;;;;7.47;4.13;;;15.70;68.80;;;;;;10335904;28;20058;-60
2023/04/08 22:32:12;;;;;;;6.30;4.18;;;15.70;68.70;;;;;;10329340;28;20477;-60
2023/04/08 22:37:12;;;;;;;6.65;4.38;;;15.70;68.70;;;;;;10327726;28;20053;-60
2023/04/08 22:42:13;;;;;;;6.88;4.78;;;15.70;68.60;;;;;;10329035;28;20106;-61
2023/04/08 22:47:14;;;;;;;6.45;4.85;;;15.70;68.60;;;;;;10329059;28;20076;-61
2023/04/08 22:52:15;;;;;;;6.35;4.68;;;15.70;68.70;;;;;;10328913;28;20109;-60
2023/04/08 22:57:15;;;;;;;5.60;3.83;;;15.70;68.70;;;;;;10328842;28;20354;-61
2023/04/08 23:02:16;;;;;;;7.03;4.28;;;15.70;68.60;;;;;;10323124;28;20450;-61
2023/04/08 23:07:17;;;;;;;10.15;5.82;;;15.70;68.70;;;;;;10328064;28;20141;-61
2023/04/08 23:12:17;;;;;;;7.10;4.57;;;15.70;68.70;;;;;;10328701;28;20105;-60
2023/04/08 23:17:18;;;;;;;5.70;4.57;;;15.70;68.70;;;;;;10327789;28;20779;-60
2023/04/08 23:22:19;;;;;;;6.43;4.35;;;15.60;68.60;;;;;;10327806;28;20109;-60
2023/04/08 23:27:19;;;;;;;6.57;4.50;;;15.70;68.70;;;;;;10327843;28;20126;-60
2023/04/08 23:32:20;;;;;;;6.47;4.68;;;15.60;68.70;;;;;;10327531;28;20117;-59
2023/04/08 23:37:21;;;;;;;7.32;4.80;;;15.60;68.50;;;;;;10325932;28;20044;-61
2023/04/08 23:42:25;;;;;;;7.38;5.30;;;15.60;68.50;;;;;;10326569;28;20069;-60
2023/04/08 23:47:26;;;;;;;7.82;5.20;;;15.60;68.50;;;;;;10326680;28;20022;-60
2023/04/08 23:52:27;;;;;;;6.90;4.85;;;15.60;68.50;;;;;;10326986;28;20101;-60
2023/04/08 23:57:27;;;;;;;6.78;4.82;;;15.60;68.40;;;;;;10326335;28;20030;-61
